Time;durP1;ratioP1;P1;durP2;ratioP2;P2;SDS_P1;SDS_P2;PMS_P1;PMS_P2;Temp;Humidity;BMP_temperature;BMP_pressure;BME280_temperature;BME280_humidity;BME280_pressure;Samples;Min_cycle;Max_cycle;Signal;HPM_P1;HPM_P2
2022/03/25 08:40:39;;;;;;;193.80;98.20;;;6.10;99.90;;;;;;5070648;28;20387;-49
2022/03/25 08:43:26;;;;;;;189.45;99.40;;;6.20;99.90;;;;;;5062087;28;20045;-43
2022/03/25 08:45:53;;;;;;;186.50;100.38;;;6.30;99.90;;;;;;5068722;28;20041;-42
2022/03/25 08:48:20;;;;;;;179.18;101.32;;;6.50;99.90;;;;;;5070104;28;20090;-48
2022/03/25 08:50:46;;;;;;;166.02;97.18;;;6.90;98.90;;;;;;5069119;28;20045;-42
2022/03/25 08:53:13;;;;;;;168.45;96.72;;;7.10;98.00;;;;;;5069929;28;20037;-47
2022/03/25 08:55:40;;;;;;;155.40;94.93;;;7.30;97.40;;;;;;5068033;28;20048;-43
2022/03/25 08:58:07;;;;;;;155.50;93.57;;;7.50;96.90;;;;;;5064295;28;20056;-44
2022/03/25 09:00:33;;;;;;;150.23;92.00;;;7.60;96.50;;;;;;5057126;28;20558;-43
2022/03/25 09:03:01;;;;;;;139.98;89.95;;;7.70;96.30;;;;;;5061070;28;20071;-43
2022/03/25 09:05:28;;;;;;;134.15;87.13;;;7.80;95.70;;;;;;5057534;28;20045;-46
2022/03/25 09:07:55;;;;;;;139.25;87.13;;;7.90;95.40;;;;;;5055429;28;20502;-42
2022/03/25 09:10:21;;;;;;;131.77;84.47;;;8.00;95.30;;;;;;5052813;28;20038;-47
2022/03/25 09:12:48;;;;;;;135.23;85.28;;;8.20;94.80;;;;;;5052490;28;20455;-44
2022/03/25 09:15:15;;;;;;;129.07;81.65;;;8.20;94.60;;;;;;5049650;28;20087;-48
2022/03/25 09:17:42;;;;;;;117.53;76.30;;;8.40;94.40;;;;;;5058845;28;20133;-47
2022/03/25 09:20:08;;;;;;;119.75;76.00;;;8.50;93.90;;;;;;5068301;28;20437;-44
2022/03/25 09:22:35;;;;;;;116.57;75.22;;;8.60;93.50;;;;;;5069116;28;20068;-49
2022/03/25 09:25:07;;;;;;;118.60;72.60;;;8.70;93.50;;;;;;5068831;28;20051;-46
2022/03/25 09:27:34;;;;;;;108.28;69.45;;;8.80;93.40;;;;;;5068196;28;20029;-46
2022/03/25 09:30:00;;;;;;;104.68;66.75;;;8.90;93.00;;;;;;5069387;28;20051;-49
2022/03/25 09:32:27;;;;;;;99.30;61.13;;;9.10;92.10;;;;;;5065029;28;20046;-53
2022/03/25 09:35:09;;;;;;;101.78;62.88;;;9.30;91.00;;;;;;5060383;28;20049;-48
2022/03/25 09:37:36;;;;;;;102.45;66.88;;;9.40;90.50;;;;;;5056433;28;20102;-50
2022/03/25 09:40:03;;;;;;;102.15;65.93;;;9.50;90.70;;;;;;5052010;28;20072;-49
2022/03/25 09:42:30;;;;;;;102.80;61.95;;;9.60;90.70;;;;;;5055911;28;20041;-51
2022/03/25 09:44:57;;;;;;;100.32;62.55;;;9.70;90.50;;;;;;5047603;28;20443;-49
2022/03/25 09:47:24;;;;;;;94.22;60.00;;;9.80;90.40;;;;;;5049461;28;20033;-48
2022/03/25 09:49:50;;;;;;;96.47;63.05;;;9.90;90.00;;;;;;5048482;28;20548;-45
2022/03/25 09:52:18;;;;;;;86.18;56.60;;;9.90;90.30;;;;;;5035567;28;20061;-47
2022/03/25 09:55:05;;;;;;;90.25;56.28;;;9.90;90.00;;;;;;5048754;28;20041;-49
2022/03/25 09:57:32;;;;;;;86.50;54.17;;;10.10;89.80;;;;;;5053957;28;20458;-45
2022/03/25 09:59:58;;;;;;;90.82;58.05;;;10.20;89.40;;;;;;5046439;28;20489;-49
2022/03/25 10:02:25;;;;;;;89.05;53.05;;;10.20;90.00;;;;;;5042979;28;20489;-46
2022/03/25 10:04:53;;;;;;;88.30;54.65;;;10.30;89.90;;;;;;5033639;28;20409;-45
2022/03/25 10:07:20;;;;;;;82.95;53.78;;;10.30;89.90;;;;;;5045672;28;20069;-49
2022/03/25 10:09:47;;;;;;;90.97;56.33;;;10.30;90.00;;;;;;5035146;28;20038;-44
2022/03/25 10:12:13;;;;;;;85.07;55.42;;;10.40;89.80;;;;;;5035277;28;20045;-48
2022/03/25 10:14:40;;;;;;;86.28;56.67;;;10.40;90.00;;;;;;5034829;28;20377;-46
2022/03/25 10:17:07;;;;;;;79.72;53.45;;;10.50;90.20;;;;;;5034314;28;20042;-46
2022/03/25 10:19:34;;;;;;;83.90;54.22;;;10.60;89.60;;;;;;5035086;28;20075;-50
